aviador You're here:

CYAM Decoded Metar

SAULT SAINTE MARIE in ON, CANADA
Report Time2018-05-27 05:00:00
UTC Time2018-05-27 05:16:50
Flight Rules vfr VFR
Wind090° at 09 kt
W.Decomp.*RWY 12: 8.3 kt HW 3.5 kt LCW
RWY 04: 4.9 kt HW 7.5 kt RCW
W.Rank090° ranks 3
Current wind is above 090° avg. (6.0)
Visibility9999 m
Phenomena:N/A
Clouds:Few 140 Hf
Expected CloudBase > 400 ft AGL from Temp-Dew spread
CeilingNone
Temp15°C (ISA +1)
Dew Point14°C (94% RH)
AAT13.0°C
QNH1009 hPa
Density Alt1,129 ft
Elevation630 ft
Report Wrong Elevation
Raw Report
CYAM 270500Z 09009KT 15SM FEW140 15/14 A2981 RMK AC1 SLP097
DENSITY ALT 1000FT=

Extra information for CYAM:More info

Metar Taf Metar & Taf Last 4 Metars F.Rules Stats Wind Profile Meteogram Temp Stats Airport Information Weather charts Add Link Nearby VenuesMetar ALERT Operation Metar Decoded Social comments